KAPAKSBS

Guest
Details From KAPA - CENTENNIAL
To KSBS - STEAMBOAT SPRINGS BOB ADAMS FLD
Flight Number -
Tags decoded
Created
Modified
Stats Distance 126 nm / 233 km
Max Altitude 0 ft / 0 m
Waypoints 7
Social Downloads 1
Likes 0
Share VATSIM

Download

Looking for another format? Having issues loading an existing format? Contact us
Advertisement - Login to hide

Notes

Requested: KAPA ONGIE FUNDS RLG V421 BQZ KSBS

Route

KAPA ONGIE FUNDS RLG V421 BQZ KSBS

ID Type Via Altitude Latitude Longitude Leg Dist Tot Dist Heading (true) Name
O KAPA APT - 0 ft / 0 m 39.57012˚ -104.84813˚ - 0 nm - CENTENNIAL
ONGIE FIX - 0 ft / 0 m 39.66530˚ -105.00823˚ 9 nm 9 nm 308° / 308° -
FUNDS FIX - 0 ft / 0 m 39.59206˚ -106.07142˚ 49 nm 58 nm 265° / 265° -
RLG VOR - 0 ft / 0 m 40.00264˚ -106.44247˚ 30 nm 88 nm 325° / 325° KREMMLING VOR-DME
ACAGI FIX V421 (AWY-LO) 0 ft / 0 m 40.43228˚ -106.84273˚ 31 nm 120 nm 325° / 324° -
BQZ VOR V421 (AWY-LO) 0 ft / 0 m 40.46375˚ -106.87231˚ 2 nm 122 nm 324° / 324° ROBERT VOR-DME
O KSBS APT - 0 ft / 0 m 40.51626˚ -106.86630˚ 3 nm 125 nm 5° / 5° STEAMBOAT SPRINGS BOB ADAMS FLD

Altitude Profile

Advertisement - Login to hide

KAPA

Details ICAO KAPA (APA)
Name CENTENNIAL
Region United States
Timezone America/Denver (UTC-7.0)
Stats Elevation 5,883 ft / 1,793 m (AMSL)
Location 39.570116° -104.848132°
Runways 3
Magnetic Variation 8.128° E

METAR

KAPA 151353Z 22011KT 10SM FEW100 FEW220 02/M14 A3003 RMK AO2 SLP201 T00171139

Decode

TAF

KAPA 151139Z 1512/1612 20007KT P6SM SKC FM151700 25009KT P6SM FEW120 SCT220 FM160200 19009KT P6SM FEW150 SCT220 FM161100 24005KT P6SM BKN140

Decode

Departure Runways

ID Width Length Bearing (true) Bearing (mag) Surface Threshold Offset Overrun Length
10 75 ft / 23 m 4,791 ft / 1,460 m 111.02° 102.89° Asphalt 0 ft / 0 m 0 ft / 0 m
17L 100 ft / 30 m 10,017 ft / 3,053 m 177.97° 169.84° Asphalt 0 ft / 0 m 0 ft / 0 m
17R 77 ft / 23 m 7,014 ft / 2,138 m 177.96° 169.83° Asphalt 0 ft / 0 m 0 ft / 0 m
28 75 ft / 23 m 4,791 ft / 1,460 m 291.03° 282.90° Asphalt 0 ft / 0 m 0 ft / 0 m
35L 77 ft / 23 m 7,014 ft / 2,138 m 357.96° 349.83° Asphalt 0 ft / 0 m 0 ft / 0 m
35R 100 ft / 30 m 10,017 ft / 3,053 m 357.97° 349.84° Asphalt 0 ft / 0 m 0 ft / 0 m

KSBS

Details ICAO KSBS (SBS)
Name STEAMBOAT SPRINGS BOB ADAMS FLD
Region United States
Timezone America/Denver (UTC-7.0)
Stats Elevation 6,878 ft / 2,096 m (AMSL)
Location 40.516258° -106.866302°
Runways 1
Magnetic Variation 9.235° E

METAR

KSBS 151354Z AUTO 00000KT 10SM CLR M13/M14 A3031 RMK AO1 T11281140

Decode

TAF

Not found

Destination Runways

ID Width Length Bearing (true) Bearing (mag) Surface Threshold Offset Overrun Length
14 100 ft / 30 m 4,454 ft / 1,358 m 152.97° 143.74° Asphalt 0 ft / 0 m 0 ft / 0 m
32 100 ft / 30 m 4,454 ft / 1,358 m 332.97° 323.74° Asphalt 600 ft / 183 m 0 ft / 0 m

Popular Alternatives